Time;durP1;ratioP1;P1;durP2;ratioP2;P2;SDS_P1;SDS_P2;PMS_P1;PMS_P2;Temp;Humidity;BMP_temperature;BMP_pressure;BME280_temperature;BME280_humidity;BME280_pressure;Samples;Min_cycle;Max_cycle;Signal;HPM_P1;HPM_P2
2023/01/13 00:00:30;;;;;;;1.50;1.00;;;11.30;99.90;;;;;;5074101;28;20454;-71
2023/01/13 00:02:55;;;;;;;2.90;0.90;;;11.30;99.90;;;;;;5074794;28;20416;-70
2023/01/13 00:05:21;;;;;;;2.50;1.23;;;11.40;99.90;;;;;;5074369;28;20245;-71
2023/01/13 00:07:48;;;;;;;2.80;0.97;;;11.30;99.90;;;;;;5073662;28;20645;-71
2023/01/13 00:10:13;;;;;;;2.53;1.00;;;11.40;99.90;;;;;;5074756;28;20175;-71
2023/01/13 00:12:40;;;;;;;1.33;0.93;;;11.40;99.90;;;;;;5056630;28;20486;-71
2023/01/13 00:15:07;;;;;;;1.33;1.10;;;11.50;99.90;;;;;;5074820;28;20196;-71
2023/01/13 00:17:33;;;;;;;1.67;0.77;;;11.60;99.90;;;;;;5057243;28;20455;-69
2023/01/13 00:19:58;;;;;;;2.00;0.70;;;11.60;99.90;;;;;;5073806;28;20886;-71
2023/01/13 00:22:24;;;;;;;1.80;0.90;;;11.60;99.90;;;;;;5074789;28;20166;-71
2023/01/13 00:24:49;;;;;;;1.23;0.60;;;11.50;99.90;;;;;;5056395;28;20162;-70
2023/01/13 00:27:15;;;;;;;1.57;0.90;;;11.50;99.90;;;;;;5074115;28;20232;-70
2023/01/13 00:29:40;;;;;;;1.80;0.80;;;11.30;99.90;;;;;;5071903;28;20186;-71
2023/01/13 00:32:06;;;;;;;1.30;0.80;;;11.40;99.90;;;;;;5073641;28;20730;-71
2023/01/13 00:34:32;;;;;;;3.37;0.87;;;11.50;99.90;;;;;;5073597;28;20181;-71
2023/01/13 00:36:57;;;;;;;2.37;1.10;;;11.40;99.90;;;;;;5073753;28;20271;-71
2023/01/13 00:39:23;;;;;;;1.10;0.70;;;11.40;99.90;;;;;;5074251;28;20513;-71
2023/01/13 00:44:33;;;;;;;1.83;0.80;;;11.50;99.90;;;;;;5074529;28;20162;-70
2023/01/13 00:46:58;;;;;;;1.03;0.70;;;11.50;99.90;;;;;;5073685;28;20434;-71
2023/01/13 00:49:24;;;;;;;1.77;0.80;;;11.60;99.90;;;;;;5073307;28;20166;-71
2023/01/13 00:51:49;;;;;;;1.53;0.70;;;11.40;99.90;;;;;;5054817;28;20262;-70
2023/01/13 00:54:15;;;;;;;1.83;1.20;;;11.50;99.90;;;;;;5054881;28;20680;-71
2023/01/13 00:56:41;;;;;;;1.03;0.80;;;11.40;99.90;;;;;;5073198;28;20186;-71
2023/01/13 00:59:10;;;;;;;2.07;1.10;;;11.40;99.90;;;;;;5072655;28;20177;-71
2023/01/13 01:01:35;;;;;;;1.43;0.60;;;11.40;99.90;;;;;;5073181;28;20166;-70
2023/01/13 01:04:01;;;;;;;1.10;0.80;;;11.30;99.90;;;;;;5073369;28;20496;-71
2023/01/13 01:06:27;;;;;;;1.30;0.67;;;11.40;99.90;;;;;;5073096;28;20668;-70
2023/01/13 01:08:53;;;;;;;1.77;0.70;;;11.40;99.90;;;;;;5073449;28;20174;-71
2023/01/13 01:11:22;;;;;;;2.53;1.10;;;11.50;99.90;;;;;;5073409;28;20412;-70
2023/01/13 01:13:53;;;;;;;2.23;0.90;;;11.40;99.90;;;;;;5073194;28;20451;-70
2023/01/13 01:16:20;;;;;;;1.53;0.70;;;11.50;99.90;;;;;;5072805;28;20432;-70
2023/01/13 01:18:48;;;;;;;1.50;1.10;;;11.30;99.90;;;;;;5073517;28;20473;-70
2023/01/13 01:21:14;;;;;;;1.40;0.70;;;11.50;99.90;;;;;;5073759;28;20411;-71
2023/01/13 01:23:40;;;;;;;2.13;0.83;;;11.50;99.90;;;;;;5073455;28;20495;-70
2023/01/13 01:26:09;;;;;;;1.87;0.90;;;11.60;99.90;;;;;;5073018;28;20425;-71
2023/01/13 01:28:35;;;;;;;1.47;0.80;;;11.60;99.90;;;;;;5073432;28;20958;-70
2023/01/13 01:31:06;;;;;;;1.83;0.80;;;11.50;99.90;;;;;;5053021;28;20515;-71
2023/01/13 01:33:31;;;;;;;1.70;0.93;;;11.70;99.90;;;;;;5055688;28;20546;-70
2023/01/13 01:35:59;;;;;;;1.00;0.60;;;11.70;99.90;;;;;;5073402;28;20975;-70
2023/01/13 01:38:24;;;;;;;4.13;1.30;;;11.60;99.90;;;;;;5063214;28;20170;-70
2023/01/13 01:40:50;;;;;;;1.00;0.63;;;11.60;99.90;;;;;;5054137;28;20771;-71
2023/01/13 01:46:04;;;;;;;1.83;0.60;;;11.50;99.90;;;;;;5053623;28;20167;-72
2023/01/13 01:48:38;;;;;;;4.20;1.00;;;11.50;99.90;;;;;;5036372;28;20420;-70
2023/01/13 01:51:08;;;;;;;1.33;0.70;;;11.50;99.90;;;;;;5053386;28;20393;-71
2023/01/13 01:53:33;;;;;;;3.40;1.33;;;11.60;99.90;;;;;;5063501;28;20548;-71
2023/01/13 01:56:00;;;;;;;1.73;0.83;;;11.60;99.90;;;;;;5073484;28;20485;-71
2023/01/13 01:58:36;;;;;;;3.20;0.80;;;11.60;99.90;;;;;;5072075;28;20711;-71
2023/01/13 02:01:02;;;;;;;1.40;0.80;;;11.70;99.90;;;;;;5073245;28;20423;-70
2023/01/13 02:03:28;;;;;;;2.50;0.80;;;11.70;99.90;;;;;;5073510;28;20400;-72
2023/01/13 02:05:54;;;;;;;1.23;1.10;;;11.70;99.90;;;;;;5055182;28;20216;-71
2023/01/13 02:08:19;;;;;;;3.53;0.80;;;11.60;99.90;;;;;;5054845;28;20416;-72
2023/01/13 02:10:51;;;;;;;2.47;0.90;;;11.60;99.90;;;;;;5072966;28;20586;-70
2023/01/13 02:13:17;;;;;;;2.60;0.87;;;11.60;99.90;;;;;;5071588;28;20264;-71
2023/01/13 02:16:00;;;;;;;1.63;0.80;;;11.50;99.90;;;;;;5072772;28;20842;-70
2023/01/13 02:18:44;;;;;;;2.03;0.70;;;11.50;99.90;;;;;;5054899;28;20405;-70
2023/01/13 02:21:48;;;;;;;2.20;0.80;;;11.60;99.90;;;;;;5072642;28;20735;-70
2023/01/13 02:24:54;;;;;;;1.37;0.70;;;11.60;99.90;;;;;;5042358;28;20445;-71
2023/01/13 02:27:38;;;;;;;1.67;1.00;;;11.50;99.90;;;;;;5072498;28;20412;-69
2023/01/13 02:33:01;;;;;;;3.40;0.80;;;11.60;99.90;;;;;;5075255;28;20438;-71
2023/01/13 02:35:35;;;;;;;2.50;1.20;;;11.50;99.90;;;;;;5076533;28;20405;-71
2023/01/13 02:38:03;;;;;;;1.47;0.90;;;11.50;99.90;;;;;;5076589;28;20523;-71
2023/01/13 02:40:55;;;;;;;1.10;0.70;;;11.50;99.90;;;;;;5059125;28;20423;-70
2023/01/13 02:46:32;;;;;;;3.53;0.93;;;11.60;99.90;;;;;;5076130;28;20805;-70
2023/01/13 02:49:04;;;;;;;1.53;1.20;;;11.60;99.90;;;;;;5074665;28;20415;-70
2023/01/13 02:51:31;;;;;;;2.60;0.90;;;11.50;99.90;;;;;;5058551;28;20407;-71
2023/01/13 02:54:14;;;;;;;1.97;0.90;;;11.50;99.90;;;;;;5077148;28;20512;-70
2023/01/13 02:56:43;;;;;;;4.20;0.97;;;11.50;99.90;;;;;;5076029;28;20426;-70
2023/01/13 02:59:10;;;;;;;1.73;0.90;;;11.60;99.90;;;;;;5077147;28;20400;-70
2023/01/13 03:01:36;;;;;;;1.50;0.80;;;11.50;99.90;;;;;;5076086;28;20402;-70
2023/01/13 03:04:13;;;;;;;1.30;0.90;;;11.50;99.90;;;;;;5075135;28;20819;-71
2023/01/13 03:07:08;;;;;;;1.23;0.90;;;11.60;99.90;;;;;;5075389;28;20540;-70
2023/01/13 03:09:47;;;;;;;2.07;0.80;;;11.50;99.90;;;;;;5075198;28;20386;-69
2023/01/13 03:12:20;;;;;;;1.73;0.77;;;11.60;99.90;;;;;;5075382;28;20433;-70
2023/01/13 03:14:56;;;;;;;1.30;0.70;;;11.50;99.90;;;;;;5075526;28;20391;-69
2023/01/13 03:17:39;;;;;;;3.90;1.00;;;11.50;99.90;;;;;;5056968;28;20438;-70
2023/01/13 03:20:20;;;;;;;1.23;0.70;;;11.50;99.90;;;;;;5075429;28;20431;-70
2023/01/13 03:23:13;;;;;;;2.30;0.70;;;11.40;99.90;;;;;;5075164;28;20392;-69
2023/01/13 03:25:52;;;;;;;1.43;0.70;;;11.40;99.90;;;;;;5073437;28;20468;-70
2023/01/13 03:28:24;;;;;;;1.20;0.87;;;11.50;99.90;;;;;;5075244;28;20391;-70
2023/01/13 03:30:57;;;;;;;1.00;0.80;;;11.50;99.90;;;;;;5073976;28;20389;-70
2023/01/13 03:33:32;;;;;;;2.40;1.00;;;11.40;99.90;;;;;;5056632;28;20531;-70
2023/01/13 03:36:02;;;;;;;1.57;0.90;;;11.40;99.90;;;;;;5067301;28;20396;-71
2023/01/13 03:38:35;;;;;;;1.77;0.70;;;11.50;99.90;;;;;;5039110;28;20405;-71
2023/01/13 03:41:14;;;;;;;1.67;0.90;;;11.50;99.90;;;;;;5039400;28;20452;-70
2023/01/13 03:44:21;;;;;;;0.90;0.60;;;11.50;99.90;;;;;;5039092;28;20405;-71
2023/01/13 03:46:52;;;;;;;1.30;0.80;;;11.60;99.90;;;;;;5055434;28;20495;-70
2023/01/13 03:49:25;;;;;;;2.50;0.90;;;11.40;99.90;;;;;;5055899;28;20397;-70
2023/01/13 03:51:57;;;;;;;2.90;0.73;;;11.50;99.90;;;;;;5056107;28;20911;-70
2023/01/13 03:54:27;;;;;;;1.70;0.80;;;11.40;99.90;;;;;;5056205;28;20429;-70
2023/01/13 03:57:04;;;;;;;1.63;0.83;;;11.40;99.90;;;;;;5054672;28;20418;-70
2023/01/13 03:59:36;;;;;;;1.83;0.80;;;11.40;99.90;;;;;;5055043;28;20396;-71
2023/01/13 04:02:24;;;;;;;1.63;0.90;;;11.40;99.90;;;;;;5047894;28;20769;-70
2023/01/13 04:04:59;;;;;;;0.90;0.70;;;11.40;99.90;;;;;;5055396;28;20412;-72
2023/01/13 04:07:53;;;;;;;2.17;0.87;;;11.30;99.90;;;;;;5073767;28;20420;-70
2023/01/13 04:10:27;;;;;;;1.23;0.80;;;11.40;99.90;;;;;;5073788;28;20978;-70
2023/01/13 04:13:03;;;;;;;1.33;0.77;;;11.50;99.90;;;;;;5073706;28;20437;-70
2023/01/13 04:15:38;;;;;;;1.70;0.90;;;11.40;99.90;;;;;;5055856;28;20407;-70
2023/01/13 04:18:13;;;;;;;1.40;0.87;;;11.40;99.90;;;;;;5074015;28;20420;-70
2023/01/13 04:20:40;;;;;;;1.83;0.83;;;11.30;99.90;;;;;;5055826;28;20499;-70
2023/01/13 04:23:06;;;;;;;2.27;0.70;;;11.30;99.90;;;;;;5073902;28;20401;-70
2023/01/13 04:25:32;;;;;;;4.40;0.93;;;11.30;99.90;;;;;;5055610;28;20469;-70
2023/01/13 04:27:57;;;;;;;1.47;0.70;;;11.20;99.90;;;;;;5074199;28;20214;-70
2023/01/13 04:30:23;;;;;;;2.17;0.63;;;11.20;99.90;;;;;;5073818;28;20927;-71
2023/01/13 04:32:48;;;;;;;1.07;0.70;;;11.30;99.90;;;;;;5071948;28;20578;-71
2023/01/13 04:35:14;;;;;;;1.67;1.03;;;11.20;99.90;;;;;;5073673;28;20165;-71
2023/01/13 04:37:40;;;;;;;1.93;0.80;;;11.30;99.90;;;;;;5106571;22;20233;-70
2023/01/13 04:40:06;;;;;;;1.70;0.70;;;11.50;99.90;;;;;;5074133;28;20172;-70
2023/01/13 04:42:32;;;;;;;1.03;0.80;;;11.50;99.90;;;;;;5073885;28;20185;-70
2023/01/13 04:44:57;;;;;;;1.00;0.70;;;11.50;99.90;;;;;;5072588;28;20465;-69
2023/01/13 04:47:23;;;;;;;1.40;0.60;;;11.50;99.90;;;;;;5073861;28;20193;-70
2023/01/13 04:49:48;;;;;;;2.03;0.80;;;11.60;99.90;;;;;;5073941;28;20548;-69
2023/01/13 04:52:14;;;;;;;0.90;0.67;;;11.50;99.90;;;;;;5056066;28;20197;-69
2023/01/13 04:54:39;;;;;;;1.47;0.80;;;11.60;99.90;;;;;;5073835;28;20615;-68
2023/01/13 04:57:05;;;;;;;1.20;0.70;;;11.60;99.90;;;;;;5072241;28;20193;-69
2023/01/13 04:59:30;;;;;;;1.50;1.00;;;11.50;99.90;;;;;;5055091;28;20178;-69
2023/01/13 05:01:56;;;;;;;1.83;1.00;;;11.50;99.90;;;;;;5053797;28;20242;-69
2023/01/13 05:04:22;;;;;;;3.80;0.70;;;11.50;99.90;;;;;;5054000;28;20175;-69
2023/01/13 05:06:47;;;;;;;0.90;0.60;;;11.50;99.90;;;;;;5053788;28;20699;-70
2023/01/13 05:09:14;;;;;;;1.77;0.93;;;11.60;99.90;;;;;;5053772;28;20174;-70
2023/01/13 05:17:29;;;;;;;1.43;0.60;;;11.70;99.90;;;;;;5053574;28;20992;-69
2023/01/13 05:19:55;;;;;;;2.50;0.60;;;11.80;99.90;;;;;;5053575;28;20860;-69
2023/01/13 05:27:53;;;;;;;2.20;0.80;;;11.70;99.90;;;;;;5069148;28;20445;-69
2023/01/13 05:30:21;;;;;;;1.10;0.70;;;11.70;99.90;;;;;;5073279;28;20549;-70
2023/01/13 05:32:47;;;;;;;1.37;1.07;;;11.80;99.90;;;;;;5072417;28;20497;-69
2023/01/13 05:35:14;;;;;;;1.50;0.70;;;11.70;99.90;;;;;;5071687;28;20420;-69
2023/01/13 05:37:41;;;;;;;1.83;0.73;;;11.80;99.90;;;;;;5053405;28;20209;-70
2023/01/13 05:43:23;;;;;;;0.90;0.60;;;11.80;99.90;;;;;;5052340;28;20431;-69
2023/01/13 05:45:55;;;;;;;1.37;0.80;;;11.80;99.90;;;;;;5033807;28;20389;-69
2023/01/13 05:48:23;;;;;;;2.03;0.60;;;11.70;99.90;;;;;;5033385;28;20944;-69
2023/01/13 05:50:49;;;;;;;0.80;0.50;;;11.60;99.90;;;;;;5032943;28;20932;-69
2023/01/13 05:53:16;;;;;;;2.10;0.60;;;11.70;99.90;;;;;;5049367;28;20486;-69
2023/01/13 05:55:42;;;;;;;0.90;0.70;;;11.60;99.90;;;;;;5072860;28;20404;-69
2023/01/13 05:58:09;;;;;;;1.17;0.70;;;11.60;99.90;;;;;;5072741;28;20435;-70
2023/01/13 06:00:35;;;;;;;0.90;0.50;;;11.70;99.90;;;;;;5072787;28;20403;-69
2023/01/13 06:03:01;;;;;;;1.73;0.80;;;11.70;99.90;;;;;;5072555;28;20398;-69
2023/01/13 06:05:27;;;;;;;1.33;0.70;;;11.60;99.90;;;;;;5072958;28;20170;-69
2023/01/13 06:07:56;;;;;;;1.37;0.60;;;11.50;99.90;;;;;;5075800;28;20967;-70
2023/01/13 06:10:22;;;;;;;3.17;0.70;;;11.40;99.90;;;;;;5057598;28;20187;-69
2023/01/13 06:12:48;;;;;;;25.60;16.40;;;11.30;99.90;;;;;;5057198;28;20799;-69
2023/01/13 06:15:13;;;;;;;30.03;17.23;;;11.40;99.90;;;;;;5056812;28;20547;-69
2023/01/13 06:17:39;;;;;;;4.37;2.23;;;11.50;99.90;;;;;;5056866;28;20713;-68
2023/01/13 06:20:07;;;;;;;1.50;0.83;;;11.60;99.90;;;;;;5056945;28;20170;-70
2023/01/13 06:22:35;;;;;;;0.90;0.60;;;11.60;99.90;;;;;;5059245;28;20203;-71
2023/01/13 06:25:01;;;;;;;0.77;0.60;;;11.60;99.90;;;;;;5075242;28;20407;-69
2023/01/13 06:27:28;;;;;;;1.40;0.80;;;11.50;99.90;;;;;;5076601;28;20424;-69
2023/01/13 06:29:55;;;;;;;1.70;0.80;;;11.40;99.90;;;;;;5076487;28;20186;-70
2023/01/13 06:32:27;;;;;;;0.70;0.50;;;11.40;99.90;;;;;;5075587;28;20463;-69
2023/01/13 06:35:00;;;;;;;0.87;0.50;;;11.40;99.90;;;;;;5075565;28;20393;-69
2023/01/13 06:37:26;;;;;;;2.10;1.37;;;11.40;99.90;;;;;;5076145;28;20876;-69
2023/01/13 06:39:57;;;;;;;18.60;16.73;;;11.40;99.90;;;;;;5076230;28;20412;-69
2023/01/13 06:45:08;;;;;;;1.47;0.90;;;11.40;99.90;;;;;;5074855;28;20427;-69
2023/01/13 06:47:34;;;;;;;3.77;2.83;;;11.40;99.90;;;;;;5075817;28;20425;-69
2023/01/13 06:50:00;;;;;;;0.97;0.80;;;11.40;99.90;;;;;;5076186;28;20906;-69
2023/01/13 06:52:29;;;;;;;1.10;0.70;;;11.40;99.90;;;;;;5075770;28;20450;-69
2023/01/13 06:54:57;;;;;;;1.57;0.77;;;11.30;99.90;;;;;;5076180;28;20260;-69
2023/01/13 06:57:24;;;;;;;1.00;0.83;;;11.30;99.90;;;;;;5074933;28;20451;-70
2023/01/13 06:59:49;;;;;;;3.43;1.87;;;11.20;99.90;;;;;;5075794;28;20404;-69
2023/01/13 07:02:15;;;;;;;4.20;0.90;;;11.30;99.90;;;;;;5075461;28;20413;-69
2023/01/13 07:04:40;;;;;;;1.17;0.90;;;11.30;99.90;;;;;;5075844;28;20625;-68
2023/01/13 07:07:09;;;;;;;11.07;8.47;;;11.30;99.90;;;;;;5075522;28;20189;-69
2023/01/13 07:09:34;;;;;;;7.27;5.90;;;11.30;99.90;;;;;;5076577;28;20188;-69
2023/01/13 07:12:00;;;;;;;2.20;1.60;;;11.40;99.90;;;;;;5075668;28;20423;-70
2023/01/13 07:17:09;;;;;;;0.93;0.60;;;11.20;99.90;;;;;;5074790;28;20195;-70
2023/01/13 07:19:35;;;;;;;1.07;0.60;;;11.30;99.90;;;;;;5075222;28;20408;-70
2023/01/13 07:22:01;;;;;;;1.00;0.60;;;11.20;99.90;;;;;;5057358;28;20177;-70
2023/01/13 07:24:26;;;;;;;2.37;1.00;;;11.10;99.90;;;;;;5075636;28;20170;-70
2023/01/13 07:26:52;;;;;;;0.93;0.50;;;11.10;99.90;;;;;;5075099;28;20236;-70
2023/01/13 07:29:17;;;;;;;1.03;0.60;;;11.10;99.90;;;;;;5066155;28;20255;-69
2023/01/13 07:31:43;;;;;;;0.70;0.50;;;11.20;99.90;;;;;;5037369;28;20170;-69
2023/01/13 07:34:09;;;;;;;2.10;0.60;;;11.10;99.90;;;;;;5068327;28;20686;-69
2023/01/13 07:36:35;;;;;;;0.80;0.60;;;11.20;99.90;;;;;;5074854;28;20507;-69
2023/01/13 07:39:01;;;;;;;0.90;0.70;;;11.10;99.90;;;;;;5073806;28;20235;-69
2023/01/13 07:44:11;;;;;;;1.47;1.10;;;11.30;99.90;;;;;;5074984;28;20412;-70
2023/01/13 07:46:37;;;;;;;1.00;0.70;;;11.40;99.90;;;;;;5066484;28;20406;-69
2023/01/13 07:49:04;;;;;;;1.77;0.57;;;11.40;99.90;;;;;;5052783;28;20179;-69
2023/01/13 07:51:29;;;;;;;1.10;0.70;;;11.40;99.90;;;;;;5053598;28;20510;-69
2023/01/13 07:53:55;;;;;;;0.70;0.60;;;11.40;99.90;;;;;;5054531;28;20889;-69
2023/01/13 07:56:21;;;;;;;0.73;0.50;;;11.40;99.90;;;;;;5055029;28;20322;-68
2023/01/13 07:58:49;;;;;;;1.13;0.40;;;11.40;99.90;;;;;;5036820;28;20252;-69
2023/01/13 08:01:16;;;;;;;1.00;0.80;;;11.50;99.90;;;;;;5035663;28;20166;-69
2023/01/13 08:03:43;;;;;;;0.80;0.50;;;11.60;99.90;;;;;;5054532;28;20412;-69
2023/01/13 08:06:10;;;;;;;2.17;0.60;;;11.50;99.90;;;;;;5056774;28;20408;-70
2023/01/13 08:08:36;;;;;;;1.20;0.67;;;11.70;99.90;;;;;;5055498;28;20429;-70
2023/01/13 08:11:04;;;;;;;1.47;0.53;;;11.80;99.90;;;;;;5054742;28;20406;-71
2023/01/13 08:13:30;;;;;;;0.80;0.60;;;11.70;99.90;;;;;;5054473;28;20437;-70
2023/01/13 08:16:01;;;;;;;0.80;0.50;;;11.80;99.90;;;;;;5054095;28;20915;-70
2023/01/13 08:18:27;;;;;;;1.80;0.70;;;11.80;99.90;;;;;;5053916;28;20194;-69
2023/01/13 08:20:53;;;;;;;0.90;0.50;;;11.80;99.90;;;;;;5054914;28;20460;-70
2023/01/13 08:23:20;;;;;;;3.53;0.90;;;11.90;99.90;;;;;;5054176;28;20631;-69
2023/01/13 08:25:46;;;;;;;0.80;0.50;;;11.90;99.90;;;;;;5053934;28;20402;-70
2023/01/13 08:28:13;;;;;;;0.70;0.50;;;12.00;99.90;;;;;;5054534;28;20754;-69
2023/01/13 08:30:39;;;;;;;0.70;0.40;;;12.10;99.90;;;;;;5060237;28;20410;-69
2023/01/13 08:33:09;;;;;;;1.47;0.50;;;12.10;99.90;;;;;;5072356;28;20534;-69
2023/01/13 08:35:39;;;;;;;1.13;0.40;;;12.20;99.90;;;;;;5073647;28;20194;-69
2023/01/13 08:38:06;;;;;;;0.97;0.70;;;12.30;99.90;;;;;;5074963;28;20489;-70
2023/01/13 08:40:32;;;;;;;1.20;0.60;;;11.90;99.90;;;;;;5072284;28;20419;-70
2023/01/13 08:42:58;;;;;;;3.03;0.80;;;11.90;99.90;;;;;;5055905;28;20978;-69
2023/01/13 08:45:24;;;;;;;1.10;0.70;;;11.70;99.90;;;;;;5073550;28;20170;-69
2023/01/13 08:47:50;;;;;;;1.00;0.70;;;11.60;99.90;;;;;;5056774;28;20525;-70
2023/01/13 08:50:16;;;;;;;1.73;0.57;;;11.20;99.90;;;;;;5073847;28;20852;-69
2023/01/13 08:52:42;;;;;;;0.77;0.60;;;11.00;99.90;;;;;;5074192;28;20196;-69
2023/01/13 08:55:08;;;;;;;1.20;0.70;;;11.00;99.90;;;;;;5071598;28;20427;-70
2023/01/13 08:57:34;;;;;;;0.90;0.53;;;11.10;99.90;;;;;;5073689;28;20184;-70
2023/01/13 09:00:00;;;;;;;1.37;0.73;;;11.40;99.90;;;;;;5073748;28;20790;-68
2023/01/13 09:02:26;;;;;;;3.80;0.80;;;11.50;99.90;;;;;;5073889;28;20503;-68
2023/01/13 09:04:51;;;;;;;1.07;1.00;;;11.60;99.90;;;;;;5073329;28;20180;-69
2023/01/13 09:07:18;;;;;;;1.20;0.70;;;11.50;99.90;;;;;;5073537;28;20252;-69
2023/01/13 09:09:43;;;;;;;0.90;0.70;;;11.50;99.90;;;;;;5055353;28;20174;-69
2023/01/13 09:14:59;;;;;;;2.50;0.90;;;11.40;99.90;;;;;;5074053;28;20161;-69
2023/01/13 09:17:24;;;;;;;1.37;1.10;;;11.30;99.90;;;;;;5073554;28;20435;-69
2023/01/13 09:19:50;;;;;;;1.30;0.80;;;11.00;99.90;;;;;;5073221;28;20419;-68
2023/01/13 09:22:18;;;;;;;4.07;1.00;;;10.80;99.90;;;;;;5073083;28;20263;-70
2023/01/13 09:24:44;;;;;;;1.40;0.70;;;10.80;99.90;;;;;;5073731;28;20184;-69
2023/01/13 09:27:12;;;;;;;1.10;0.70;;;10.60;99.90;;;;;;5054503;28;20451;-69
2023/01/13 09:29:37;;;;;;;1.80;0.80;;;10.40;99.90;;;;;;5073084;28;20420;-69
2023/01/13 09:32:04;;;;;;;1.13;0.73;;;10.30;99.90;;;;;;5073109;28;20421;-70
2023/01/13 09:37:13;;;;;;;1.50;0.97;;;10.40;99.90;;;;;;5071434;28;20922;-69
2023/01/13 09:39:39;;;;;;;0.87;0.70;;;10.30;99.90;;;;;;5052659;28;20409;-69
2023/01/13 09:45:24;;;;;;;1.00;0.60;;;10.40;99.90;;;;;;5053322;28;20534;-70
2023/01/13 09:47:54;;;;;;;0.90;0.63;;;10.60;99.90;;;;;;5064923;28;20436;-70
2023/01/13 09:50:44;;;;;;;1.20;1.10;;;10.70;99.90;;;;;;5064249;28;20488;-70
2023/01/13 09:53:39;;;;;;;1.00;0.60;;;10.80;99.90;;;;;;5034003;28;20529;-69
2023/01/13 09:56:08;;;;;;;0.70;0.50;;;10.80;99.90;;;;;;5044867;28;20442;-69
2023/01/13 09:58:33;;;;;;;1.27;0.60;;;10.70;99.90;;;;;;5052664;28;20422;-68
2023/01/13 10:01:40;;;;;;;2.40;0.50;;;10.70;99.90;;;;;;5052772;28;20393;-69
2023/01/13 10:04:14;;;;;;;1.57;0.90;;;10.70;99.90;;;;;;5052111;28;20185;-69
2023/01/13 10:06:43;;;;;;;0.90;0.60;;;10.60;99.90;;;;;;5052994;28;20420;-69
2023/01/13 10:09:26;;;;;;;1.17;0.60;;;10.50;99.90;;;;;;5052617;28;20492;-69
2023/01/13 10:14:48;;;;;;;0.83;0.63;;;10.40;99.90;;;;;;5053632;28;20442;-69
2023/01/13 10:17:27;;;;;;;1.27;0.60;;;10.50;99.90;;;;;;5052681;28;20417;-70
2023/01/13 10:19:58;;;;;;;0.80;0.50;;;10.30;99.90;;;;;;5052754;28;20381;-69
2023/01/13 10:22:44;;;;;;;0.90;0.60;;;10.30;99.90;;;;;;5052546;28;20410;-70
2023/01/13 10:25:29;;;;;;;3.93;0.90;;;10.40;99.90;;;;;;5073000;28;20394;-69
2023/01/13 10:28:00;;;;;;;0.90;0.60;;;10.30;99.90;;;;;;5072872;28;20455;-70
2023/01/13 10:30:32;;;;;;;4.00;1.10;;;10.50;99.90;;;;;;5073041;28;20449;-69
2023/01/13 10:33:23;;;;;;;0.90;0.70;;;10.50;99.90;;;;;;5071986;28;20990;-69
2023/01/13 10:36:12;;;;;;;2.70;0.80;;;10.50;99.90;;;;;;5072561;28;20752;-69
2023/01/13 10:38:43;;;;;;;1.87;1.07;;;10.60;99.90;;;;;;5080822;22;20493;-71
2023/01/13 10:41:15;;;;;;;1.00;0.60;;;10.70;99.90;;;;;;5053649;28;20406;-72
2023/01/13 10:44:00;;;;;;;1.07;0.70;;;11.00;99.90;;;;;;5071622;28;20411;-72
2023/01/13 10:46:26;;;;;;;1.00;0.50;;;11.20;99.90;;;;;;5053630;28;20478;-72
2023/01/13 10:48:57;;;;;;;1.00;0.70;;;11.30;99.90;;;;;;5071991;28;20471;-72
2023/01/13 10:51:30;;;;;;;1.87;0.97;;;11.30;99.90;;;;;;5071157;28;20423;-72
2023/01/13 10:54:21;;;;;;;1.63;0.60;;;11.10;99.90;;;;;;5074251;28;20524;-72
2023/01/13 10:56:49;;;;;;;1.40;0.80;;;11.10;99.90;;;;;;5075613;28;20386;-72
2023/01/13 10:59:16;;;;;;;1.80;0.90;;;10.90;99.90;;;;;;5075391;28;20498;-71
2023/01/13 11:01:59;;;;;;;1.03;0.87;;;10.80;99.90;;;;;;5074989;28;20416;-72
2023/01/13 11:04:27;;;;;;;1.07;0.50;;;10.60;99.90;;;;;;5056980;28;20470;-71
2023/01/13 11:06:53;;;;;;;1.10;0.63;;;10.40;99.90;;;;;;5074616;28;20411;-71
2023/01/13 11:09:21;;;;;;;2.30;0.87;;;10.20;99.90;;;;;;5074762;28;20913;-72
2023/01/13 11:11:49;;;;;;;3.07;0.80;;;10.10;99.90;;;;;;5074985;28;20162;-70
2023/01/13 11:14:31;;;;;;;0.80;0.57;;;10.00;99.90;;;;;;5074686;28;20467;-73
2023/01/13 11:17:00;;;;;;;1.40;0.60;;;10.00;99.90;;;;;;5075077;28;20382;-73
2023/01/13 11:19:29;;;;;;;1.40;0.77;;;10.00;99.90;;;;;;5074739;28;20973;-73
2023/01/13 11:22:07;;;;;;;1.40;0.80;;;10.00;99.90;;;;;;5074618;28;20433;-73
2023/01/13 11:24:43;;;;;;;0.90;0.70;;;10.20;99.90;;;;;;5074767;28;20766;-72
2023/01/13 11:27:24;;;;;;;2.70;1.60;;;10.10;99.90;;;;;;5074620;28;20382;-73
2023/01/13 11:29:59;;;;;;;1.00;0.63;;;10.20;99.90;;;;;;5075384;28;20389;-72
2023/01/13 11:32:26;;;;;;;0.90;0.60;;;10.10;99.90;;;;;;5074719;28;20459;-73
2023/01/13 11:35:00;;;;;;;0.80;0.70;;;10.10;99.90;;;;;;5073639;28;20451;-72
2023/01/13 11:37:39;;;;;;;1.93;0.77;;;9.80;99.90;;;;;;5065626;28;20447;-70
2023/01/13 11:40:22;;;;;;;1.97;0.80;;;9.60;99.90;;;;;;5054828;28;20395;-72
2023/01/13 11:43:25;;;;;;;2.37;1.00;;;9.60;99.90;;;;;;5054736;28;20381;-71
2023/01/13 11:45:57;;;;;;;1.67;0.70;;;9.60;99.90;;;;;;5056555;28;20393;-73
2023/01/13 11:48:26;;;;;;;1.67;0.80;;;9.50;99.90;;;;;;5054540;28;20480;-72
2023/01/13 11:51:02;;;;;;;1.23;0.93;;;9.60;99.90;;;;;;5054039;28;20961;-72
2023/01/13 11:53:57;;;;;;;2.37;1.40;;;9.60;99.90;;;;;;5054312;28;20427;-71
2023/01/13 11:56:35;;;;;;;1.93;0.60;;;9.80;99.90;;;;;;5054692;28;20861;-72
2023/01/13 11:59:14;;;;;;;2.03;1.03;;;9.90;99.90;;;;;;5053975;28;20468;-72
2023/01/13 12:02:00;;;;;;;3.37;1.10;;;10.00;99.90;;;;;;5054475;28;20765;-72
2023/01/13 12:04:42;;;;;;;5.07;1.93;;;10.30;99.90;;;;;;5064691;28;20780;-72
2023/01/13 12:07:16;;;;;;;1.63;0.83;;;10.90;99.90;;;;;;5074358;28;20898;-72
2023/01/13 12:09:50;;;;;;;1.60;1.00;;;11.60;99.90;;;;;;5056051;28;20454;-72
2023/01/13 12:12:52;;;;;;;1.43;0.70;;;11.90;99.90;;;;;;5073754;28;20438;-71
2023/01/13 12:15:21;;;;;;;1.00;0.67;;;12.70;99.90;;;;;;5074214;28;20400;-72
2023/01/13 12:18:19;;;;;;;1.80;0.87;;;12.40;99.90;;;;;;5073730;28;20789;-72
2023/01/13 12:21:07;;;;;;;1.93;0.60;;;11.80;99.90;;;;;;5073254;28;20836;-71
2023/01/13 12:23:58;;;;;;;1.87;1.00;;;11.40;99.90;;;;;;5074116;28;20855;-71
2023/01/13 12:26:25;;;;;;;2.67;1.00;;;11.50;99.90;;;;;;5074012;28;20423;-70
2023/01/13 12:29:05;;;;;;;4.60;1.00;;;11.80;99.90;;;;;;5073459;28;20902;-71
2023/01/13 12:31:35;;;;;;;1.10;0.80;;;12.60;99.90;;;;;;5073419;28;20400;-71
2023/01/13 12:34:31;;;;;;;2.17;1.00;;;13.50;99.90;;;;;;5072115;28;20532;-73
2023/01/13 12:37:28;;;;;;;1.70;0.90;;;14.30;99.90;;;;;;5073419;28;20388;-72
2023/01/13 12:40:16;;;;;;;2.03;0.90;;;14.60;99.90;;;;;;5073893;28;20382;-73
2023/01/13 12:45:44;;;;;;;7.00;1.20;;;13.90;99.90;;;;;;5073698;28;20437;-72
2023/01/13 12:48:49;;;;;;;2.63;1.00;;;12.70;99.90;;;;;;5073250;28;20429;-72
2023/01/13 12:51:22;;;;;;;2.90;1.17;;;11.80;99.90;;;;;;5073015;28;20167;-71
2023/01/13 12:53:48;;;;;;;3.33;1.50;;;11.30;99.90;;;;;;5072617;28;20926;-73
2023/01/13 12:56:20;;;;;;;2.10;1.27;;;11.10;99.90;;;;;;5072514;28;20535;-72
2023/01/13 12:58:46;;;;;;;4.93;1.90;;;10.80;99.90;;;;;;5072683;28;20790;-72
2023/01/13 13:01:13;;;;;;;4.73;1.23;;;10.60;99.90;;;;;;5072691;28;20517;-72
2023/01/13 13:03:39;;;;;;;6.87;2.30;;;10.50;99.90;;;;;;5072544;28;20204;-73
2023/01/13 13:06:27;;;;;;;6.57;1.47;;;10.50;99.90;;;;;;5072298;28;20462;-71
2023/01/13 13:09:03;;;;;;;6.50;1.30;;;10.40;99.90;;;;;;5054327;28;20458;-72
2023/01/13 13:14:36;;;;;;;2.53;1.47;;;10.30;99.90;;;;;;5073046;28;20399;-71
2023/01/13 13:17:02;;;;;;;3.77;1.60;;;10.40;99.90;;;;;;5072051;28;20408;-72
2023/01/13 13:19:31;;;;;;;3.90;1.50;;;10.40;99.90;;;;;;5071823;28;20406;-72
2023/01/13 13:22:06;;;;;;;6.60;2.07;;;10.50;99.90;;;;;;5072505;28;20402;-70
2023/01/13 13:24:31;;;;;;;3.50;1.33;;;10.50;99.90;;;;;;5072709;28;20397;-71
2023/01/13 13:27:14;;;;;;;4.60;1.60;;;10.40;99.90;;;;;;5052688;28;20555;-73
2023/01/13 13:29:50;;;;;;;2.90;1.80;;;10.40;99.90;;;;;;5034275;28;20540;-73
2023/01/13 13:32:42;;;;;;;6.53;2.20;;;10.40;99.90;;;;;;5052365;28;20388;-72
2023/01/13 13:35:37;;;;;;;3.27;1.33;;;10.40;99.90;;;;;;5068255;28;20432;-72
2023/01/13 13:46:45;;;;;;;6.73;1.80;;;10.50;99.90;;;;;;5071438;28;20494;-72
2023/01/13 13:49:15;;;;;;;5.33;1.90;;;10.50;99.90;;;;;;5053574;28;20443;-71
2023/01/13 13:51:58;;;;;;;5.87;1.77;;;10.50;99.90;;;;;;5072110;28;20415;-71
2023/01/13 13:54:23;;;;;;;7.93;2.20;;;10.60;99.90;;;;;;5072057;28;20380;-73
2023/01/13 13:56:50;;;;;;;8.23;1.63;;;10.50;99.90;;;;;;5072052;28;20499;-72
2023/01/13 13:59:22;;;;;;;4.20;1.53;;;10.50;99.90;;;;;;5071866;28;20261;-71
2023/01/13 14:02:00;;;;;;;2.17;1.20;;;10.50;99.90;;;;;;5071953;28;20392;-72
2023/01/13 14:04:35;;;;;;;3.30;1.50;;;10.50;99.90;;;;;;5053498;28;20484;-72
2023/01/13 14:07:14;;;;;;;3.50;1.37;;;10.50;99.90;;;;;;5071772;28;20397;-72
2023/01/13 14:09:44;;;;;;;4.87;1.37;;;10.60;99.90;;;;;;5053691;28;20453;-72